Portada
METAR-TAF:

METAR-TAF

Aeroports :

Jesaq, Iran

latitud: 26-38N, longitud: 057-46E, altitud: 3 m

Observació

L'informe es va fer fa 1 hora i 22 minuts, a les 21:00 UTC
Vent 6 kt del Nord-Oest
Temperatura 22°C
Humitat 73%
Pressió 1011 hPa
Visibilitat: 6000 m

METAR: OIZJ 282100Z 32006KT 6000 NSC 22/17 Q1011

Hora: 01:52 (22:22 UTC)


TAF: manca

Observacions i pronòstics meteorològics de més de 4000 aeroports (METAR i TAF).

Les estacions disponibles són els punts grocs i vermells al mapa.

Posi el ratolí al punt desitjat per veure el nom de l'estació.

Feu clic per veure les observacions i els pronòstics meteorològics.

Per canviar el mapa: feu clic els botons verds amb una creu de color negre per apropar; al botó verd amb un guió per allunyar la imatge; o en les fletxes verdes per a mapes adjacents.


METAR-TAF: